Latest Weather Observations for Sheoaks

IDV60901

Issued at 10:55 am EST Thursday 24 April 2014 (issued every 10 minutes, with the page automatically refreshed every 10 minutes)

About weather observations | Map of Melbourne area stations | Latest observations for Melbourne area | Other Formats
Station Details ID: 087168 Name: SHEOAKS Lat: -37.91 Lon: 144.13 Height: 236.7 m
Data from the previous 72 hours. | See also: Recent months at Sheoaks
Date/Time
EST
Tmp

°C
App
Tmp
°C
Dew
Point
°C
Rel
Hum
%
Delta-T

°C
Wind Press
QNH
hPa
Press
MSL
hPa
Rain
since
9 am
mm
Dir
 
Spd
km/h
Gust
km/h
Spd
kts
Gust
kts
24/10:30am 12.6 7.8 4.8 59 3.6 WSW 19 33 10 18 1017.1 - 0.0
24/10:00am 12.7 8.8 7.0 68 2.8 WSW 17 30 9 16 1016.5 1016.3 0.0
24/09:30am 12.6 8.5 7.9 73 2.3 WSW 19 28 10 15 1016.1 - 0.0
24/09:00am 11.9 8.5 9.1 83 1.4 W 17 30 9 16 1015.6 1015.5 1.4
24/08:30am 11.6 8.9 10.3 92 0.7 W 15 26 8 14 1015.0 - 1.4
24/08:00am 11.2 8.5 10.3 94 0.5 W 15 22 8 12 1014.2 1014.0 1.4
24/07:30am 11.2 6.7 10.1 93 0.6 W 24 41 13 22 1013.2 - 1.2
24/07:00am 11.5 8.3 8.5 82 1.5 NW 15 22 8 12 1012.0 1011.8 0.4
24/06:30am 12.2 7.6 8.3 77 1.9 NW 22 35 12 19 1011.3 - 0.0
24/06:00am 12.8 8.3 6.8 67 2.9 NW 20 32 11 17 1010.8 1010.6 0.0
24/05:30am 12.7 7.9 5.6 62 3.4 NW 20 30 11 16 1010.3 - 0.0
24/05:00am 12.8 8.1 5.0 59 3.7 NW 19 33 10 18 1010.3 1010.1 0.0
24/04:30am 12.4 8.2 3.9 56 3.9 NNW 15 24 8 13 1009.8 - 0.0
24/04:00am 11.9 7.2 3.4 56 3.8 NNW 17 24 9 13 1009.6 1009.4 0.0
24/03:30am 12.2 7.2 3.4 55 4.0 NNW 19 30 10 16 1009.7 - 0.0
24/03:00am 11.9 7.6 3.4 56 3.8 NNW 15 22 8 12 1010.2 1010.0 0.0
24/02:30am 12.3 8.0 3.5 55 4.0 NNW 15 22 8 12 1010.5 - 0.0
24/02:00am 11.8 8.0 3.8 58 3.6 NNW 13 20 7 11 1010.8 1010.6 0.0
24/01:30am 12.3 8.5 3.8 56 3.9 NNW 13 22 7 12 1010.9 - 0.0
24/01:00am 12.7 8.5 3.9 55 4.0 NNW 15 22 8 12 1010.8 1010.6 0.0
24/12:30am 12.6 8.5 4.3 57 3.8 NNW 15 19 8 10 1011.1 - 0.0
24/12:00am 12.2 8.1 4.4 59 3.6 NNW 15 22 8 12 1011.7 1011.5 0.0
 
Date/Time
EST
Tmp

°C
App
Tmp
°C
Dew
Point
°C
Rel
Hum
%
Delta-T

°C
Wind Press
QNH
hPa
Press
MSL
hPa
Rain
since
9 am
mm
Dir
 
Spd
km/h
Gust
km/h
Spd
kts
Gust
kts
23/11:30pm 11.9 8.2 4.4 60 3.4 NNW 13 19 7 10 1012.1 - 0.0
23/11:00pm 11.6 8.3 4.6 62 3.2 NNW 11 17 6 9 1012.4 1012.2 0.0
23/10:30pm 11.6 8.3 4.8 63 3.1 NNW 11 15 6 8 1012.6 - 0.0
23/10:00pm 11.8 8.9 4.8 62 3.2 NNW 9 17 5 9 1012.8 1012.6 0.0
23/09:30pm 11.9 8.7 4.9 62 3.2 NNW 11 17 6 9 1013.0 - 0.0
23/09:00pm 11.3 8.5 5.2 66 2.8 NNW 9 13 5 7 1013.1 1012.9 0.0
23/08:30pm 11.3 9.0 5.6 68 2.7 NNW 7 9 4 5 1013.4 - 0.0
23/08:00pm 10.7 8.7 6.1 73 2.2 N 6 7 3 4 1013.6 1013.4 0.0
23/07:30pm 10.6 8.4 6.0 73 2.2 N 7 9 4 5 1013.6 - 0.0
23/07:00pm 11.1 9.1 6.3 72 2.3 N 6 9 3 5 1013.4 1013.2 0.0
23/06:30pm 12.3 10.6 6.1 66 3.0 N 4 6 2 3 1013.3 - 0.0
23/06:00pm 13.5 12.4 4.9 56 4.0 CALM 0 0 0 0 1013.2 1013.0 0.0
23/05:30pm 14.8 13.3 5.1 52 4.6 NW 2 4 1 2 1013.2 - 0.0
23/05:00pm 15.4 12.9 4.5 48 5.2 NW 7 9 4 5 1013.3 1013.1 0.0
23/04:30pm 16.5 12.8 4.5 45 5.7 W 13 22 7 12 1013.5 - 0.0
23/04:00pm 16.8 13.8 6.0 49 5.3 NW 11 20 6 11 1013.8 1013.6 0.0
23/03:30pm 16.7 13.2 5.6 48 5.4 WNW 13 19 7 10 1013.8 - 0.0
23/03:00pm 16.8 13.9 6.3 50 5.2 WNW 11 20 6 11 1013.9 1013.7 0.0
23/02:30pm 16.4 13.9 6.5 52 4.9 WNW 9 13 5 7 1013.9 - 0.0
23/02:00pm 16.5 14.6 6.6 52 4.9 WNW 6 11 3 6 1014.0 1013.8 0.0
23/01:30pm 15.6 12.7 6.6 55 4.4 W 11 17 6 9 1014.3 - 0.0
23/01:00pm 15.8 13.7 6.8 55 4.5 NW 7 13 4 7 1014.9 1014.7 0.0
23/12:30pm 15.8 12.9 6.5 54 4.6 W 11 15 6 8 1015.6 - 0.0
23/12:00pm 15.5 12.5 6.2 54 4.5 W 11 17 6 9 1016.3 1016.1 0.0
23/11:30am 15.3 13.2 6.6 56 4.3 WNW 7 13 4 7 1016.4 - 0.0
23/11:00am 14.7 13.2 8.4 66 3.2 W 6 11 3 6 1016.6 1016.4 0.0
23/10:30am 14.1 13.1 8.7 70 2.8 W 4 9 2 5 1016.8 - 0.0
23/10:00am 13.7 12.7 8.7 72 2.5 WNW 4 7 2 4 1017.0 1016.8 0.0
23/09:30am 12.1 10.6 9.1 82 1.5 W 7 13 4 7 1017.3 - 0.0
23/09:00am 10.4 9.5 9.3 93 0.6 NNW 4 7 2 4 1017.5 1017.3 1.0
23/08:30am 7.6 5.8 7.2 97 0.2 N 6 9 3 5 1017.4 - 1.0
23/08:00am 5.8 3.1 5.5 98 0.1 N 9 11 5 6 1017.0 1016.8 1.0
23/07:30am 4.9 2.0 4.6 98 0.1 N 9 11 5 6 1016.8 - 1.0
23/07:00am 4.9 2.0 4.8 99 0.0 N 9 11 5 6 1016.7 1016.5 1.0
23/06:30am 4.5 1.5 4.2 98 0.1 N 9 9 5 5 1016.7 - 1.0
23/06:00am 4.8 1.9 4.7 99 0.0 NNW 9 9 5 5 1016.6 1016.4 1.0
23/05:30am 5.0 2.1 4.9 99 0.0 N 9 11 5 6 1016.7 - 1.0
23/05:00am 5.2 2.4 5.1 99 0.0 NNW 9 9 5 5 1016.6 1016.4 1.0
23/04:30am 5.8 2.7 5.7 99 0.0 N 11 11 6 6 1016.4 - 1.0
23/04:00am 5.5 2.7 5.2 98 0.1 N 9 11 5 6 1016.4 1016.2 1.0
23/03:30am 6.1 3.4 5.8 98 0.1 N 9 11 5 6 1016.3 - 1.0
23/03:00am 6.5 3.9 6.2 98 0.1 N 9 9 5 5 1016.6 1016.4 0.8
23/02:30am 6.6 4.4 6.3 98 0.1 N 7 9 4 5 1017.0 - 0.8
23/02:00am 6.9 4.8 6.6 98 0.1 N 7 9 4 5 1017.2 1017.0 0.8
23/01:30am 7.5 5.5 7.2 98 0.1 N 7 9 4 5 1017.3 - 0.8
23/01:00am 8.2 6.4 7.8 97 0.2 NNW 7 7 4 4 1017.5 1017.3 0.8
23/12:30am 8.7 7.0 8.3 97 0.2 N 7 7 4 4 1017.6 - 0.8
23/12:00am 9.3 7.9 8.7 96 0.3 N 6 7 3 4 1017.8 1017.6 0.8
 
Date/Time
EST
Tmp

°C
App
Tmp
°C
Dew
Point
°C
Rel
Hum
%
Delta-T

°C
Wind Press
QNH
hPa
Press
MSL
hPa
Rain
since
9 am
mm
Dir
 
Spd
km/h
Gust
km/h
Spd
kts
Gust
kts
22/11:30pm 9.6 8.2 8.8 95 0.4 N 6 6 3 3 1018.0 - 0.8
22/11:00pm 10.4 9.1 9.3 93 0.6 N 6 6 3 3 1018.1 1017.9 0.8
22/10:30pm 10.9 10.0 9.3 90 0.8 N 4 6 2 3 1018.3 - 0.8
22/10:00pm 11.1 10.9 9.2 88 1.0 CALM 0 2 0 1 1018.4 1018.2 0.8
22/09:30pm 11.2 10.6 8.8 85 1.2 WNW 2 4 1 2 1018.2 - 0.8
22/09:00pm 11.7 11.0 8.7 82 1.5 WNW 2 4 1 2 1018.0 1017.8 0.8
22/08:30pm 12.4 11.4 8.9 79 1.8 WSW 4 6 2 3 1017.9 - 0.8
22/08:00pm 12.7 12.5 9.2 79 1.8 CALM 0 6 0 3 1017.8 1017.6 0.8
22/07:30pm 12.6 12.1 10.8 89 1.0 WSW 4 7 2 4 1017.6 - 0.8
22/07:00pm 13.1 13.3 11.8 92 0.7 SSE 2 4 1 2 1017.3 1017.1 0.8
22/06:30pm 13.3 12.7 11.7 90 0.9 SE 6 7 3 4 1017.0 - 0.8
22/06:00pm 13.8 12.6 11.5 86 1.2 SE 9 15 5 8 1016.5 1016.3 0.0
22/05:30pm 14.2 12.6 11.5 84 1.5 SSE 11 17 6 9 1016.2 - 0.0
22/05:00pm 15.3 14.0 11.3 77 2.2 W 9 22 5 12 1015.6 1015.5 0.0
22/04:30pm 15.7 15.3 12.5 81 1.8 NW 6 9 3 5 1015.1 - 0.0
22/04:00pm 15.8 15.3 12.5 81 1.8 NNW 7 11 4 6 1015.0 1014.8 0.0
22/03:30pm 15.6 15.1 12.5 82 1.7 NNW 7 11 4 6 1014.9 - 0.0
22/03:00pm 15.7 15.3 13.0 84 1.5 NNW 7 11 4 6 1014.8 1014.6 0.0
22/02:30pm 15.0 14.8 13.0 88 1.1 WNW 6 9 3 5 1014.8 - 0.0
22/02:00pm 14.6 13.8 13.0 90 0.9 NW 9 15 5 8 1014.5 1014.3 0.0
22/01:30pm 14.0 13.3 13.1 94 0.5 WNW 9 13 5 7 1014.8 - 0.0
22/01:00pm 14.0 12.2 12.0 88 1.1 WNW 13 20 7 11 1014.9 1014.7 0.0
22/12:30pm 15.4 14.6 11.6 78 2.1 NW 7 13 4 7 1014.9 - 0.0
22/12:00pm 15.5 14.9 11.7 78 2.1 WNW 6 9 3 5 1015.0 1014.8 0.0
22/11:30am 15.3 14.2 11.9 80 1.9 NNW 9 15 5 8 1015.1 - 0.0
22/11:00am 16.0 14.1 11.8 76 2.3 WNW 13 24 7 13 1015.0 1014.8 0.0
22/10:30am 16.4 14.9 12.0 75 2.4 WNW 11 17 6 9 1014.9 - 0.0
22/10:00am 16.1 14.2 11.7 75 2.4 NW 13 24 7 13 1014.7 1014.5 0.0
22/09:30am 15.7 13.8 11.9 78 2.1 NW 13 22 7 12 1014.7 - 0.0
22/09:00am 15.0 13.5 11.8 81 1.7 NW 11 17 6 9 1014.4 1014.2 6.6
22/08:30am 13.9 12.6 11.4 85 1.3 NW 9 15 5 8 1014.2 - 6.6
22/08:00am 12.7 10.9 10.8 88 1.0 N 11 19 6 10 1014.0 1013.8 6.6
22/07:30am 12.1 9.0 10.3 89 0.9 N 17 24 9 13 1013.5 - 6.4
22/07:07am 11.6 8.2 10.5 93 0.6 NNE 19 24 10 13 1013.1 - 6.4
22/07:00am 11.6 11.0 10.5 93 0.6 NNW 4 9 2 5 1015.2 1015.0 5.4
22/06:30am 12.0 10.7 9.9 87 1.1 NW 7 13 4 7 1014.6 - 3.6
22/06:00am 12.2 8.5 9.6 84 1.3 NNW 19 28 10 15 1014.4 1014.2 3.4
22/05:30am 12.1 7.8 9.5 84 1.3 NNW 22 33 12 18 1013.8 - 2.4
22/05:00am 12.7 8.4 9.3 80 1.7 N 22 32 12 17 1013.1 1012.9 1.0
22/04:30am 13.5 9.4 8.8 73 2.4 NNW 20 33 11 18 1013.5 - 0.2
22/04:00am 15.4 11.0 7.2 58 4.1 NNW 20 32 11 17 1013.4 1013.2 0.0
22/03:30am 15.9 11.3 6.3 53 4.7 N 20 39 11 21 1012.2 - 0.0
22/03:00am 15.4 10.8 6.4 55 4.4 N 20 33 11 18 1012.1 1011.9 0.0
22/02:30am 15.7 12.7 6.2 53 4.7 NNW 11 22 6 12 1012.9 - 0.0
22/02:00am 16.1 11.4 6.0 51 5.0 NNW 20 35 11 19 1012.8 1012.6 0.0
22/01:30am 16.1 10.9 5.7 50 5.1 N 22 37 12 20 1012.4 - 0.0
22/01:00am 16.3 10.7 5.6 49 5.2 N 24 43 13 23 1012.7 1012.5 0.0
22/12:45am 16.3 9.6 5.6 49 5.2 N 30 48 16 26 1012.0 - 0.0
22/12:30am 15.7 9.3 5.3 50 5.0 N 28 37 15 20 1012.1 - 0.0
22/12:00am 15.8 9.8 5.4 50 5.0 N 26 35 14 19 1012.5 1012.3 0.0
 
Date/Time
EST
Tmp

°C
App
Tmp
°C
Dew
Point
°C
Rel
Hum
%
Delta-T

°C
Wind Press
QNH
hPa
Press
MSL
hPa
Rain
since
9 am
mm
Dir
 
Spd
km/h
Gust
km/h
Spd
kts
Gust
kts
21/11:37pm 16.4 10.0 5.4 48 5.3 N 28 46 15 25 1012.6 - 0.0
21/11:30pm 16.2 9.9 5.5 49 5.2 N 28 43 15 23 1012.9 - 0.0
21/11:00pm 16.5 8.8 5.2 47 5.5 N 35 50 19 27 1012.7 1012.5 0.0
21/10:30pm 16.4 9.7 5.4 48 5.3 N 30 54 16 29 1013.0 - 0.0
21/10:00pm 16.6 9.3 5.3 47 5.5 N 33 52 18 28 1013.0 1012.8 0.0
21/09:31pm 16.5 8.5 5.5 48 5.3 N 37 56 20 30 1012.9 - 0.0
21/09:30pm 16.5 8.5 5.5 48 5.3 N 37 56 20 30 1012.9 - 0.0
21/09:03pm 16.4 8.8 5.7 49 5.2 N 35 54 19 29 1013.1 - 0.0
21/09:00pm 16.4 8.4 5.7 49 5.2 N 37 54 20 29 1013.0 1012.8 0.0
21/08:44pm 16.4 8.8 5.7 49 5.2 N 35 54 19 29 1012.9 - 0.0
21/08:30pm 16.5 7.8 5.8 49 5.2 N 41 57 22 31 1012.9 - 0.0
21/08:00pm 16.4 8.8 6.0 50 5.1 N 35 56 19 30 1013.1 1012.9 0.0
21/07:30pm 16.7 10.4 5.6 48 5.4 N 28 46 15 25 1013.3 - 0.0
21/07:00pm 17.1 9.9 5.7 47 5.6 N 33 56 18 30 1013.0 1012.8 0.0
21/06:33pm 17.3 9.7 5.9 47 5.6 N 35 56 19 30 1012.3 - 0.0
21/06:30pm 17.2 9.6 5.8 47 5.6 N 35 52 19 28 1012.4 - 0.0
21/06:03pm 17.6 10.4 5.9 46 5.8 N 33 52 18 28 1012.4 - 0.0
21/06:00pm 17.6 10.4 5.9 46 5.8 N 33 50 18 27 1012.5 1012.3 0.0
21/05:32pm 17.9 10.9 5.8 45 6.0 N 32 50 17 27 1012.3 - 0.0
21/05:30pm 17.9 10.7 5.8 45 6.0 N 33 50 18 27 1012.2 - 0.0
21/05:00pm 18.5 11.9 6.0 44 6.2 N 30 50 16 27 1012.3 1012.1 0.0
21/04:36pm 19.3 13.1 6.1 42 6.6 N 28 46 15 25 1012.2 - 0.0
21/04:30pm 19.5 14.0 5.9 41 6.8 NNW 24 43 13 23 1012.3 - 0.0
21/04:00pm 19.5 11.9 5.9 41 6.8 N 35 54 19 29 1012.4 1012.2 0.0
21/03:30pm 19.2 12.1 6.3 43 6.5 N 33 57 18 31 1012.5 - 0.0
21/03:03pm 19.2 11.8 6.7 44 6.3 N 35 54 19 29 1013.0 - 0.0
21/03:00pm 19.0 11.2 6.5 44 6.3 N 37 54 20 29 1013.0 1012.8 0.0
21/02:35pm 18.7 11.2 6.2 44 6.3 NNW 35 59 19 32 1013.3 - 0.0
21/02:30pm 18.9 11.4 6.1 43 6.4 N 35 50 19 27 1013.5 - 0.0
21/02:00pm 19.5 12.4 5.6 40 6.9 N 32 52 17 28 1014.0 1013.8 0.0
21/01:30pm 19.3 12.0 5.4 40 6.9 NNW 33 57 18 31 1014.0 - 0.0
21/01:00pm 18.5 11.4 5.7 43 6.3 NNW 32 56 17 30 1013.9 1013.7 0.0
21/12:42pm 19.0 12.0 5.8 42 6.6 NNW 32 50 17 27 1014.1 - 0.0
21/12:30pm 19.0 11.4 5.8 42 6.6 NNW 35 52 19 28 1014.4 - 0.0
21/12:00pm 19.1 11.8 5.6 41 6.7 N 33 57 18 31 1015.0 1014.8 0.0
21/11:38am 18.5 11.4 5.4 42 6.4 NNW 32 50 17 27 1015.4 - 0.0
21/11:30am 18.2 10.9 5.4 43 6.3 NNW 33 48 18 26 1015.7 - 0.0
21/11:20am 18.5 12.1 5.4 42 6.4 N 28 48 15 26 1015.8 - 0.0
21/11:00am 18.2 11.5 5.4 43 6.3 NNW 30 46 16 25 1016.4 1016.2 0.0

Latest Capital City Observations: Canberra | Sydney | Melbourne | Brisbane | Adelaide | Perth | Hobart | Darwin

Other Formats:

Comma delimited format used in spreadsheet applications
http://www.bom.gov.au/fwo/IDV60901/IDV60901.94863.axf

JavaScript Object Notation format (JSON) in row-major order
http://www.bom.gov.au/fwo/IDV60901/IDV60901.94863.json